createdAt,value
2018-06-15T00:00:06.839Z,97732.25
2018-06-15T00:00:38.425Z,97736.08
2018-06-15T00:01:10.056Z,97732.23
2018-06-15T00:01:41.634Z,97727.13
2018-06-15T00:02:13.208Z,97728.85
2018-06-15T00:02:44.842Z,97729.75
2018-06-15T00:03:16.429Z,97731.03
2018-06-15T00:03:48.014Z,97728.42
2018-06-15T00:04:19.597Z,97728.89
2018-06-15T00:04:51.188Z,97733.12
2018-06-15T00:05:22.773Z,97734.45
2018-06-15T00:05:54.376Z,97730.20
2018-06-15T00:06:25.972Z,97731.50
2018-06-15T00:06:57.637Z,97728.52
2018-06-15T00:07:29.212Z,97732.81
2018-06-15T00:08:00.789Z,97731.13
2018-06-15T00:08:32.392Z,97727.72
2018-06-15T00:09:03.977Z,97737.53
2018-06-15T00:09:35.581Z,97737.10
2018-06-15T00:10:07.179Z,97735.45
2018-06-15T00:10:38.755Z,97733.75
2018-06-15T00:11:10.375Z,97734.17
2018-06-15T00:11:41.965Z,97735.45
2018-06-15T00:12:13.597Z,97736.73
2018-06-15T00:12:45.188Z,97737.58
2018-06-15T00:13:16.774Z,97738.86
2018-06-15T00:13:48.353Z,97737.59
2018-06-15T00:14:19.954Z,97735.90
2018-06-15T00:14:51.538Z,97733.77
2018-06-15T00:15:23.118Z,97736.33
2018-06-15T00:15:54.707Z,97736.33
2018-06-15T00:16:26.318Z,97735.49
2018-06-15T00:16:57.926Z,97738.47
2018-06-15T00:17:29.533Z,97735.06
2018-06-15T00:18:01.111Z,97738.11
2018-06-15T00:18:32.704Z,97739.81
2018-06-15T00:19:04.304Z,97736.83
2018-06-15T00:19:35.885Z,97738.55
2018-06-15T00:20:07.485Z,97739.40
2018-06-15T00:20:39.070Z,97739.82
2018-06-15T00:21:10.676Z,97741.52
2018-06-15T00:21:42.265Z,97738.98
2018-06-15T00:22:13.846Z,97736.00
2018-06-15T00:22:45.473Z,97736.00
2018-06-15T00:23:17.072Z,97736.86
2018-06-15T00:23:48.679Z,97737.70
2018-06-15T00:24:20.290Z,97738.60
2018-06-15T00:24:51.893Z,97738.18
2018-06-15T00:25:23.478Z,97736.05
2018-06-15T00:25:55.044Z,97732.21
2018-06-15T00:26:26.625Z,97740.73
2018-06-15T00:26:58.210Z,97736.91
2018-06-15T00:27:29.851Z,97738.60
2018-06-15T00:28:01.458Z,97739.88
2018-06-15T00:28:33.031Z,97737.76
2018-06-15T00:29:04.614Z,97740.73
2018-06-15T00:29:36.221Z,97742.88
2018-06-15T00:30:07.815Z,97736.91
2018-06-15T00:30:39.397Z,97740.33
2018-06-15T00:31:10.973Z,97742.03
2018-06-15T00:31:42.564Z,97739.48
2018-06-15T00:32:14.169Z,97731.86
2018-06-15T00:32:45.788Z,97739.11
2018-06-15T00:33:17.371Z,97740.81
2018-06-15T00:33:48.949Z,97735.70
2018-06-15T00:34:20.524Z,97736.98
2018-06-15T00:34:52.108Z,97736.14
2018-06-15T00:35:23.693Z,97738.70
2018-06-15T00:35:55.302Z,97738.69
2018-06-15T00:36:26.889Z,97735.29
2018-06-15T00:36:58.474Z,97734.50
2018-06-15T00:37:30.054Z,97743.39
2018-06-15T00:38:01.706Z,97737.44
2018-06-15T00:38:33.385Z,97735.30
2018-06-15T00:39:04.994Z,97737.48
2018-06-15T00:39:36.586Z,97740.46
2018-06-15T00:40:08.194Z,97737.92
2018-06-15T00:40:39.774Z,97737.02
2018-06-15T00:41:11.374Z,97734.95
2018-06-15T00:41:42.957Z,97741.75
2018-06-15T00:42:14.558Z,97738.77
2018-06-15T00:42:46.204Z,97739.20
2018-06-15T00:43:17.790Z,97741.34
2018-06-15T00:43:49.366Z,97734.95
2018-06-15T00:44:20.946Z,97740.08
2018-06-15T00:44:52.545Z,97743.05
2018-06-15T00:45:24.130Z,97736.66
2018-06-15T00:45:55.709Z,97736.25
2018-06-15T00:46:27.313Z,97741.36
2018-06-15T00:46:58.916Z,97735.86
2018-06-15T00:47:30.500Z,97739.27
2018-06-15T00:48:02.149Z,97739.27
2018-06-15T00:48:33.754Z,97738.84
2018-06-15T00:49:05.344Z,97736.29
2018-06-15T00:49:36.932Z,97739.69
2018-06-15T00:50:08.534Z,97747.38
2018-06-15T00:50:40.137Z,97737.16
2018-06-15T00:51:11.732Z,97743.11
2018-06-15T00:51:43.337Z,97740.14
2018-06-15T00:52:14.941Z,97740.14
2018-06-15T00:52:46.520Z,97739.72
2018-06-15T00:53:18.122Z,97736.31
2018-06-15T00:53:49.756Z,97743.98
2018-06-15T00:54:21.342Z,97740.57
2018-06-15T00:54:52.921Z,97735.08
2018-06-15T00:55:24.537Z,97741.01
2018-06-15T00:55:56.116Z,97737.22
2018-06-15T00:56:27.711Z,97739.34
2018-06-15T00:56:59.317Z,97741.43
2018-06-15T00:57:30.911Z,97743.13
2018-06-15T00:58:02.561Z,97739.63
2018-06-15T00:58:34.155Z,97737.91
2018-06-15T00:59:05.747Z,97745.11
2018-06-15T00:59:37.354Z,97739.61
2018-06-15T01:00:08.924Z,97737.06
2018-06-15T01:00:40.524Z,97742.12
2018-06-15T01:01:12.113Z,97742.12
2018-06-15T01:01:43.703Z,97741.73
2018-06-15T01:02:15.284Z,97740.46
2018-06-15T01:02:46.885Z,97739.57
2018-06-15T01:03:18.533Z,97740.04
2018-06-15T01:03:50.117Z,97745.15
2018-06-15T01:04:21.688Z,97745.58
2018-06-15T01:04:53.265Z,97743.45
2018-06-15T01:05:24.835Z,97741.75
2018-06-15T01:05:56.412Z,97741.33
2018-06-15T01:06:27.979Z,97740.04
2018-06-15T01:06:59.559Z,97742.12
2018-06-15T01:07:31.170Z,97740.84
2018-06-15T01:08:02.778Z,97743.83
2018-06-15T01:08:34.381Z,97739.57
2018-06-15T01:09:05.985Z,97739.98
2018-06-15T01:09:37.590Z,97737.48
2018-06-15T01:10:09.174Z,97741.69
2018-06-15T01:10:40.781Z,97738.72
2018-06-15T01:11:12.389Z,97740.84
2018-06-15T01:11:43.997Z,97734.92
2018-06-15T01:12:15.650Z,97737.06
2018-06-15T01:12:47.257Z,97742.17
2018-06-15T01:13:18.842Z,97738.34
2018-06-15T01:13:50.426Z,97738.77
2018-06-15T01:14:22.097Z,97737.91
2018-06-15T01:14:53.672Z,97731.52
2018-06-15T01:15:25.250Z,97740.91
2018-06-15T01:15:56.839Z,97739.18
2018-06-15T01:16:28.475Z,97734.50
2018-06-15T01:17:00.062Z,97733.23
2018-06-15T01:17:31.645Z,97734.50
2018-06-15T01:18:03.245Z,97730.67
2018-06-15T01:18:34.829Z,97738.34
2018-06-15T01:19:06.399Z,97731.96
2018-06-15T01:19:38.010Z,97734.09
2018-06-15T01:20:09.666Z,97732.38
2018-06-15T01:20:41.306Z,97737.92
2018-06-15T01:21:12.858Z,97735.36
2018-06-15T01:21:44.441Z,97735.78
2018-06-15T01:22:16.007Z,97730.23
2018-06-15T01:22:47.576Z,97731.89
2018-06-15T01:23:19.182Z,97729.32
2018-06-15T01:23:50.780Z,97734.43
2018-06-15T01:24:22.352Z,97731.47
2018-06-15T01:24:53.933Z,97725.94
2018-06-15T01:25:25.545Z,97729.33
2018-06-15T01:25:57.146Z,97727.25
2018-06-15T01:26:28.741Z,97726.36
2018-06-15T01:27:00.314Z,97724.70
2018-06-15T01:27:31.954Z,97728.95
2018-06-15T01:28:03.533Z,97724.70
2018-06-15T01:28:35.141Z,97730.25
2018-06-15T01:29:06.750Z,97723.08
2018-06-15T01:29:38.327Z,97730.27
2018-06-15T01:30:09.937Z,97730.27
2018-06-15T01:30:41.517Z,97730.25
2018-06-15T01:31:13.119Z,97726.41
2018-06-15T01:31:44.702Z,97730.25
2018-06-15T01:32:16.285Z,97726.84
2018-06-15T01:32:47.895Z,97725.99
2018-06-15T01:33:19.482Z,97725.99
2018-06-15T01:33:51.076Z,97728.98
2018-06-15T01:34:22.662Z,97726.84
2018-06-15T01:34:54.238Z,97727.27
2018-06-15T01:35:25.843Z,97725.15
2018-06-15T01:35:57.450Z,97725.15
2018-06-15T01:36:29.061Z,97729.41
2018-06-15T01:37:00.665Z,97728.14
2018-06-15T01:37:32.240Z,97726.92
2018-06-15T01:38:03.818Z,97731.55
2018-06-15T01:38:35.393Z,97728.63
2018-06-15T01:39:07.000Z,97728.58
2018-06-15T01:39:38.639Z,97729.47
2018-06-15T01:40:10.245Z,97731.12
2018-06-15T01:40:41.840Z,97734.06
2018-06-15T01:41:13.449Z,97731.91
2018-06-15T01:41:45.044Z,97732.32
2018-06-15T01:42:16.649Z,97734.43
2018-06-15T01:42:48.234Z,97734.02
2018-06-15T01:43:19.836Z,97726.34
2018-06-15T01:43:51.434Z,97732.72
2018-06-15T01:44:23.044Z,97728.89
2018-06-15T01:44:54.645Z,97730.61
2018-06-15T01:45:26.225Z,97732.38
2018-06-15T01:45:57.827Z,97734.43
2018-06-15T01:46:29.490Z,97735.70
2018-06-15T01:47:01.080Z,97736.98
2018-06-15T01:47:32.686Z,97730.17
2018-06-15T01:48:04.269Z,97728.91
2018-06-15T01:48:35.847Z,97730.61
2018-06-15T01:49:07.434Z,97735.72
2018-06-15T01:49:39.079Z,97737.42
2018-06-15T01:50:10.655Z,97734.87
2018-06-15T01:50:42.243Z,97737.00
2018-06-15T01:51:13.825Z,97736.14
2018-06-15T01:51:45.406Z,97734.87
2018-06-15T01:52:16.985Z,97739.95
2018-06-15T01:52:48.590Z,97737.40
2018-06-15T01:53:20.196Z,97743.36
2018-06-15T01:53:51.777Z,97740.39
2018-06-15T01:54:23.377Z,97743.02
2018-06-15T01:54:55.034Z,97740.41
2018-06-15T01:55:26.628Z,97742.97
2018-06-15T01:55:58.233Z,97735.70
2018-06-15T01:56:29.839Z,97739.97
2018-06-15T01:57:01.445Z,97741.67
2018-06-15T01:57:33.026Z,97734.42
2018-06-15T01:58:04.596Z,97738.25
2018-06-15T01:58:36.202Z,97739.13
2018-06-15T01:59:07.790Z,97741.27
2018-06-15T01:59:39.394Z,97733.66
2018-06-15T02:00:11.052Z,97738.78
2018-06-15T02:00:42.633Z,97734.95
2018-06-15T02:01:14.322Z,97739.20
2018-06-15T02:01:45.877Z,97732.88
2018-06-15T02:02:17.461Z,97729.04
2018-06-15T02:02:49.036Z,97737.52
2018-06-15T02:03:20.628Z,97737.51
2018-06-15T02:03:52.219Z,97737.56
2018-06-15T02:04:23.849Z,97736.72
2018-06-15T02:04:55.453Z,97732.06
2018-06-15T02:05:27.034Z,97731.67
2018-06-15T02:05:58.617Z,97735.89
2018-06-15T02:06:30.210Z,97737.17
2018-06-15T02:07:01.798Z,97729.55
2018-06-15T02:07:33.368Z,97735.50
2018-06-15T02:08:04.937Z,97735.89
2018-06-15T02:08:36.528Z,97733.75
2018-06-15T02:09:08.124Z,97737.91
2018-06-15T02:09:39.769Z,97737.86
2018-06-15T02:10:11.383Z,97731.91
2018-06-15T02:10:42.992Z,97733.16
2018-06-15T02:11:14.588Z,97734.86
2018-06-15T02:11:46.197Z,97734.02
2018-06-15T02:12:17.845Z,97740.41
2018-06-15T02:12:49.429Z,97730.68
2018-06-15T02:13:21.023Z,97732.75
2018-06-15T02:13:52.609Z,97733.16
2018-06-15T02:14:24.179Z,97736.98
2018-06-15T02:14:55.772Z,97734.87
2018-06-15T02:15:27.372Z,97732.32
2018-06-15T02:15:58.948Z,97726.40
2018-06-15T02:16:30.601Z,97728.53
2018-06-15T02:17:02.187Z,97731.53
2018-06-15T02:17:33.757Z,97726.40
2018-06-15T02:18:05.347Z,97728.48
2018-06-15T02:18:36.950Z,97731.05
2018-06-15T02:19:08.558Z,97729.81
2018-06-15T02:19:40.140Z,97731.52
2018-06-15T02:20:11.714Z,97725.13
2018-06-15T02:20:43.294Z,97726.41
2018-06-15T02:21:14.888Z,97728.13
2018-06-15T02:21:46.554Z,97729.81
2018-06-15T02:22:18.166Z,97731.11
2018-06-15T02:22:49.753Z,97728.13
2018-06-15T02:23:21.333Z,97731.11
2018-06-15T02:23:52.930Z,97723.02
2018-06-15T02:24:24.545Z,97724.30
2018-06-15T02:24:56.162Z,97729.85
2018-06-15T02:25:27.735Z,97729.47
2018-06-15T02:25:59.324Z,97734.58
2018-06-15T02:26:30.925Z,97726.92
2018-06-15T02:27:02.549Z,97729.47
2018-06-15T02:27:34.122Z,97729.04
2018-06-15T02:28:05.726Z,97736.25
2018-06-15T02:28:37.393Z,97731.13
2018-06-15T02:29:09.005Z,97729.49
2018-06-15T02:29:40.654Z,97732.83
2018-06-15T02:30:12.277Z,97731.59
2018-06-15T02:30:43.898Z,97736.25
2018-06-15T02:31:15.505Z,97726.48
2018-06-15T02:31:47.113Z,97738.00
2018-06-15T02:32:18.775Z,97734.18
2018-06-15T02:32:50.361Z,97732.53
2018-06-15T02:33:21.957Z,97735.89
2018-06-15T02:33:55.006Z,97732.53
2018-06-15T02:34:26.961Z,97731.19
2018-06-15T02:34:58.756Z,97733.23
2018-06-15T02:35:30.365Z,97731.47
2018-06-15T02:36:01.973Z,97736.51
2018-06-15T02:36:33.805Z,97732.30
2018-06-15T02:37:05.399Z,97737.34
2018-06-15T02:37:36.981Z,97738.60
2018-06-15T02:38:08.561Z,97738.60
2018-06-15T02:38:40.136Z,97739.41
2018-06-15T02:39:11.741Z,97739.88
2018-06-15T02:39:43.322Z,97736.05
2018-06-15T02:40:14.892Z,97737.27
2018-06-15T02:40:46.484Z,97738.13
2018-06-15T02:41:18.106Z,97739.40
2018-06-15T02:41:49.736Z,97742.86
2018-06-15T02:42:21.305Z,97736.41
2018-06-15T02:42:52.902Z,97740.24
2018-06-15T02:43:24.512Z,97738.55
2018-06-15T02:43:56.118Z,97736.83
2018-06-15T02:44:27.732Z,97737.25
2018-06-15T02:44:59.325Z,97737.69
2018-06-15T02:45:30.988Z,97733.85
2018-06-15T02:46:02.526Z,97748.41
2018-06-15T02:46:34.096Z,97732.22
2018-06-15T02:47:05.669Z,97736.42
2018-06-15T02:47:37.282Z,97741.53
2018-06-15T02:48:08.865Z,97735.98
2018-06-15T02:48:40.466Z,97742.38
2018-06-15T02:49:12.113Z,97739.40
2018-06-15T02:49:43.710Z,97735.14
2018-06-15T02:50:15.294Z,97741.11
2018-06-15T02:50:46.876Z,97742.81
2018-06-15T02:51:18.485Z,97738.98
2018-06-15T02:51:50.072Z,97740.26
2018-06-15T02:52:21.653Z,97740.26
2018-06-15T02:52:53.330Z,97741.53
2018-06-15T02:53:24.974Z,97742.81
2018-06-15T02:53:56.549Z,97738.96
2018-06-15T02:54:28.138Z,97740.73
2018-06-15T02:54:59.732Z,97740.69
2018-06-15T02:55:31.304Z,97743.22
2018-06-15T02:56:02.941Z,97743.22
2018-06-15T02:56:34.545Z,97736.42
2018-06-15T02:57:06.128Z,97742.80
2018-06-15T02:57:37.729Z,97738.13
2018-06-15T02:58:09.337Z,97742.39
2018-06-15T02:58:40.921Z,97738.13
2018-06-15T02:59:12.527Z,97745.80
2018-06-15T02:59:44.101Z,97740.69
2018-06-15T03:00:15.680Z,97743.16
2018-06-15T03:00:47.271Z,97738.13
2018-06-15T03:01:18.850Z,97736.34
2018-06-15T03:01:50.822Z,97740.66
2018-06-15T03:02:22.395Z,97739.82
2018-06-15T03:02:54.002Z,97739.83
2018-06-15T03:03:25.626Z,97739.02
2018-06-15T03:03:57.210Z,97741.97
2018-06-15T03:04:28.793Z,97737.34
2018-06-15T03:05:00.444Z,97737.76
2018-06-15T03:05:32.050Z,97739.89
2018-06-15T03:06:03.657Z,97739.95
2018-06-15T03:06:35.270Z,97737.83
2018-06-15T03:07:06.886Z,97731.95
2018-06-15T03:07:38.492Z,97736.58
2018-06-15T03:08:10.082Z,97739.57
2018-06-15T03:08:41.693Z,97736.63
2018-06-15T03:09:13.310Z,97736.20
2018-06-15T03:09:45.913Z,97740.05
2018-06-15T03:10:17.549Z,97736.66
2018-06-15T03:10:49.133Z,97731.98
2018-06-15T03:11:20.786Z,97734.97
2018-06-15T03:11:52.408Z,97733.69
2018-06-15T03:12:23.988Z,97737.94
2018-06-15T03:12:55.586Z,97735.02
2018-06-15T03:13:27.166Z,97733.31
2018-06-15T03:13:58.749Z,97735.04
2018-06-15T03:14:30.344Z,97734.18
2018-06-15T03:15:01.917Z,97740.16
2018-06-15T03:15:33.508Z,97738.45
2018-06-15T03:16:05.170Z,97736.78
2018-06-15T03:16:36.801Z,97741.47
2018-06-15T03:17:08.376Z,97741.05
2018-06-15T03:17:39.983Z,97738.92
2018-06-15T03:18:11.556Z,97737.22
2018-06-15T03:18:43.165Z,97740.63
2018-06-15T03:19:14.754Z,97738.50
2018-06-15T03:19:46.328Z,97735.95
2018-06-15T03:20:17.906Z,97743.56
2018-06-15T03:20:49.519Z,97740.14
2018-06-15T03:21:21.106Z,97744.80
2018-06-15T03:21:52.752Z,97738.37
2018-06-15T03:22:24.357Z,97740.06
2018-06-15T03:22:55.942Z,97742.24
2018-06-15T03:23:27.519Z,97737.99
2018-06-15T03:23:59.112Z,97733.75
2018-06-15T03:24:30.697Z,97736.30
2018-06-15T03:25:02.306Z,97740.20
2018-06-15T03:25:33.893Z,97738.06
2018-06-15T03:26:05.477Z,97737.17
2018-06-15T03:26:37.112Z,97735.02
2018-06-15T03:27:08.689Z,97738.44
2018-06-15T03:27:40.297Z,97739.69
2018-06-15T03:28:11.931Z,97738.80
2018-06-15T03:28:43.504Z,97741.36
2018-06-15T03:29:15.106Z,97741.36
2018-06-15T03:29:46.693Z,97736.66
2018-06-15T03:30:18.302Z,97742.61
2018-06-15T03:30:49.913Z,97735.38
2018-06-15T03:31:21.534Z,97737.51
2018-06-15T03:31:53.122Z,97739.22
2018-06-15T03:32:24.730Z,97745.66
2018-06-15T03:32:56.339Z,97742.26
2018-06-15T03:33:27.932Z,97744.41
2018-06-15T03:33:59.546Z,97747.38
2018-06-15T03:34:31.150Z,97744.83
2018-06-15T03:35:02.770Z,97746.11
2018-06-15T03:35:34.357Z,97742.70
2018-06-15T03:36:05.966Z,97740.14
2018-06-15T03:36:37.557Z,97745.19
2018-06-15T03:37:09.132Z,97749.84
2018-06-15T03:37:40.777Z,97747.23
2018-06-15T03:38:12.379Z,97743.38
2018-06-15T03:38:43.983Z,97742.95
2018-06-15T03:39:15.564Z,97743.39
2018-06-15T03:39:47.155Z,97742.97
2018-06-15T03:40:18.727Z,97744.69
2018-06-15T03:40:50.305Z,97742.12
2018-06-15T03:41:21.890Z,97742.97
2018-06-15T03:41:53.541Z,97747.20
2018-06-15T03:42:25.154Z,97738.25
2018-06-15T03:42:56.723Z,97745.50
2018-06-15T03:43:28.332Z,97741.73
2018-06-15T03:43:59.908Z,97747.23
2018-06-15T03:44:31.499Z,97748.56
2018-06-15T03:45:03.107Z,97753.28
2018-06-15T03:45:34.721Z,97744.39
2018-06-15T03:46:06.305Z,97748.66
2018-06-15T03:46:37.909Z,97749.58
2018-06-15T03:47:09.558Z,97754.27
2018-06-15T03:47:41.155Z,97749.17
2018-06-15T03:48:12.731Z,97746.63
2018-06-15T03:48:44.324Z,97750.07
2018-06-15T03:49:15.918Z,97750.11
2018-06-15T03:49:47.524Z,97753.92
2018-06-15T03:50:19.100Z,97751.80
2018-06-15T03:50:50.749Z,97747.97
2018-06-15T03:51:22.330Z,97749.25
2018-06-15T03:51:53.911Z,97740.39
2018-06-15T03:52:25.513Z,97750.16
2018-06-15T03:52:57.101Z,97752.71
2018-06-15T03:53:28.691Z,97754.86
2018-06-15T03:54:00.279Z,97752.78
2018-06-15T03:54:31.861Z,97753.59
2018-06-15T03:55:03.428Z,97754.88
2018-06-15T03:55:34.996Z,97751.89
2018-06-15T03:56:06.637Z,97751.03
2018-06-15T03:56:38.208Z,97751.50
2018-06-15T03:57:09.818Z,97754.06
2018-06-15T03:57:41.410Z,97755.73
2018-06-15T03:58:12.999Z,97757.42
2018-06-15T03:58:44.594Z,97751.45
2018-06-15T03:59:16.184Z,97757.00
2018-06-15T03:59:47.814Z,97752.36
2018-06-15T04:00:19.412Z,97759.60
2018-06-15T04:00:51.011Z,97759.56
2018-06-15T04:01:22.617Z,97756.62
2018-06-15T04:01:54.230Z,97760.46
2018-06-15T04:02:25.845Z,97765.14
2018-06-15T04:02:57.442Z,97763.02
2018-06-15T04:03:29.045Z,97765.58
2018-06-15T04:04:00.657Z,97759.62
2018-06-15T04:04:32.268Z,97763.89
2018-06-15T04:05:03.885Z,97763.47
2018-06-15T04:05:35.487Z,97766.44
2018-06-15T04:06:07.117Z,97765.59
2018-06-15T04:06:38.699Z,97765.59
2018-06-15T04:07:10.283Z,97760.91
2018-06-15T04:07:41.878Z,97767.30
2018-06-15T04:08:13.510Z,97761.33
2018-06-15T04:08:45.088Z,97766.88
2018-06-15T04:09:16.695Z,97766.86
2018-06-15T04:09:48.323Z,97768.14
2018-06-15T04:10:19.905Z,97768.98
2018-06-15T04:10:51.566Z,97763.89
2018-06-15T04:11:23.150Z,97760.89
2018-06-15T04:11:54.758Z,97766.86
2018-06-15T04:12:26.344Z,97767.30
2018-06-15T04:12:57.994Z,97770.71
2018-06-15T04:13:29.561Z,97769.85
2018-06-15T04:14:01.162Z,97771.55
2018-06-15T04:14:32.750Z,97771.12
2018-06-15T04:15:04.358Z,97767.72
2018-06-15T04:15:35.952Z,97765.16
2018-06-15T04:16:07.592Z,97768.14
2018-06-15T04:16:39.201Z,97768.98
2018-06-15T04:17:10.789Z,97771.98
2018-06-15T04:17:42.389Z,97768.58
2018-06-15T04:18:13.982Z,97769.44
2018-06-15T04:18:45.585Z,97771.55
2018-06-15T04:19:17.200Z,97766.94
2018-06-15T04:19:48.834Z,97764.31
2018-06-15T04:20:20.462Z,97769.42
2018-06-15T04:20:52.096Z,97770.27
2018-06-15T04:21:23.710Z,97770.70
2018-06-15T04:21:55.310Z,97767.72
2018-06-15T04:22:26.913Z,97766.02
2018-06-15T04:22:58.526Z,97765.17
2018-06-15T04:23:30.136Z,97765.17
2018-06-15T04:24:01.766Z,97764.32
2018-06-15T04:24:33.349Z,97767.30
2018-06-15T04:25:04.934Z,97765.59
2018-06-15T04:25:36.504Z,97761.83
2018-06-15T04:26:08.085Z,97765.64
2018-06-15T04:26:39.697Z,97772.03
2018-06-15T04:27:11.349Z,97768.63
2018-06-15T04:27:42.957Z,97764.38
2018-06-15T04:28:14.549Z,97763.13
2018-06-15T04:28:46.135Z,97763.60
2018-06-15T04:29:17.708Z,97768.63
2018-06-15T04:29:49.303Z,97766.50
2018-06-15T04:30:20.885Z,97770.77
2018-06-15T04:30:52.496Z,97765.64
2018-06-15T04:31:24.070Z,97768.63
2018-06-15T04:31:55.681Z,97772.84
2018-06-15T04:32:27.282Z,97767.73
2018-06-15T04:32:58.860Z,97772.83
2018-06-15T04:33:30.469Z,97771.12
2018-06-15T04:34:02.077Z,97773.27
2018-06-15T04:34:33.721Z,97773.27
2018-06-15T04:35:05.301Z,97778.42
2018-06-15T04:35:36.895Z,97769.01
2018-06-15T04:36:08.477Z,97769.44
2018-06-15T04:36:40.052Z,97768.16
2018-06-15T04:37:11.699Z,97768.56
2018-06-15T04:37:43.289Z,97770.18
2018-06-15T04:38:14.893Z,97771.83
2018-06-15T04:38:46.508Z,97769.20
2018-06-15T04:39:18.100Z,97769.17
2018-06-15T04:39:49.713Z,97773.80
2018-06-15T04:40:21.293Z,97772.52
2018-06-15T04:40:52.884Z,97769.09
2018-06-15T04:41:24.480Z,97772.50
2018-06-15T04:41:56.090Z,97774.59
2018-06-15T04:42:27.688Z,97775.48
2018-06-15T04:42:59.334Z,97777.61
2018-06-15T04:43:30.945Z,97776.77
2018-06-15T04:44:02.541Z,97781.45
2018-06-15T04:44:34.116Z,97778.03
2018-06-15T04:45:05.713Z,97777.22
2018-06-15T04:45:37.322Z,97775.05
2018-06-15T04:46:08.935Z,97783.58
2018-06-15T04:46:40.528Z,97777.27
2018-06-15T04:47:12.110Z,97773.86
2018-06-15T04:47:43.705Z,97782.82
2018-06-15T04:48:15.281Z,97784.52
2018-06-15T04:48:46.864Z,97779.84
2018-06-15T04:49:18.477Z,97781.98
2018-06-15T04:49:50.048Z,97784.97
2018-06-15T04:50:21.667Z,97782.41
2018-06-15T04:50:53.240Z,97786.29
2018-06-15T04:51:24.812Z,97785.45
2018-06-15T04:51:56.380Z,97783.75
2018-06-15T04:52:27.981Z,97780.78
2018-06-15T04:52:59.578Z,97785.45
2018-06-15T04:53:31.162Z,97781.64
2018-06-15T04:54:02.735Z,97782.54
2018-06-15T04:54:34.373Z,97786.80
2018-06-15T04:55:05.972Z,97782.10
2018-06-15T04:55:37.558Z,97780.42
2018-06-15T04:56:09.136Z,97778.30
2018-06-15T04:56:40.713Z,97782.55
2018-06-15T04:57:12.312Z,97780.89
2018-06-15T04:57:43.884Z,97777.92
2018-06-15T04:58:15.525Z,97780.43
2018-06-15T04:58:47.126Z,97787.23
2018-06-15T04:59:18.705Z,97782.56
2018-06-15T04:59:50.313Z,97783.41
2018-06-15T05:00:21.922Z,97785.12
2018-06-15T05:00:53.535Z,97784.25
2018-06-15T05:01:25.154Z,97782.12
2018-06-15T05:01:56.736Z,97782.12
2018-06-15T05:02:28.343Z,97786.38
2018-06-15T05:02:59.923Z,97780.84
2018-06-15T05:03:31.565Z,97787.23
2018-06-15T05:04:03.169Z,97785.89
2018-06-15T05:04:34.773Z,97786.75
2018-06-15T05:05:06.378Z,97782.55
2018-06-15T05:05:37.958Z,97791.06
2018-06-15T05:06:09.533Z,97785.96
2018-06-15T05:06:41.123Z,97788.09
2018-06-15T05:07:12.704Z,97789.34
2018-06-15T05:07:44.291Z,97785.08
2018-06-15T05:08:15.863Z,97789.72
2018-06-15T05:08:47.495Z,97788.00
2018-06-15T05:09:19.135Z,97785.87
2018-06-15T05:09:50.692Z,97792.68
2018-06-15T05:10:22.256Z,97790.08
2018-06-15T05:10:53.838Z,97784.58
2018-06-15T05:11:25.422Z,97790.06
2018-06-15T05:11:57.036Z,97790.06
2018-06-15T05:12:28.644Z,97791.32
2018-06-15T05:13:00.250Z,97792.13
2018-06-15T05:13:31.877Z,97791.69
2018-06-15T05:14:03.520Z,97794.23
2018-06-15T05:14:35.105Z,97786.16
2018-06-15T05:15:06.696Z,97788.28
2018-06-15T05:15:38.290Z,97787.00
2018-06-15T05:16:09.874Z,97792.12
2018-06-15T05:16:41.474Z,97790.83
2018-06-15T05:17:13.060Z,97787.43
2018-06-15T05:17:44.646Z,97786.57
2018-06-15T05:18:16.258Z,97787.42
2018-06-15T05:18:47.856Z,97788.27
2018-06-15T05:19:19.505Z,97787.84
2018-06-15T05:19:51.097Z,97793.81
2018-06-15T05:20:22.741Z,97792.11
2018-06-15T05:20:54.354Z,97795.94
2018-06-15T05:21:25.934Z,97791.67
2018-06-15T05:21:57.542Z,97794.65
2018-06-15T05:22:29.150Z,97794.23
2018-06-15T05:23:00.766Z,97794.23
2018-06-15T05:23:32.340Z,97792.95
2018-06-15T05:24:03.932Z,97795.92
2018-06-15T05:24:35.581Z,97795.09
2018-06-15T05:25:07.159Z,97794.66
2018-06-15T05:25:38.738Z,97797.64
2018-06-15T05:26:10.346Z,97794.24
2018-06-15T05:26:41.943Z,97796.43
2018-06-15T05:27:13.553Z,97791.27
2018-06-15T05:27:45.161Z,97792.98
2018-06-15T05:28:16.763Z,97798.94
2018-06-15T05:28:48.376Z,97798.08
2018-06-15T05:29:19.984Z,97794.61
2018-06-15T05:29:51.570Z,97798.00
2018-06-15T05:30:23.181Z,97793.33
2018-06-15T05:30:54.820Z,97798.48
2018-06-15T05:31:26.396Z,97796.73
2018-06-15T05:31:57.981Z,97794.17
2018-06-15T05:32:29.562Z,97800.13
2018-06-15T05:33:01.138Z,97796.73
2018-06-15T05:33:32.711Z,97798.84
2018-06-15T05:34:04.314Z,97801.00
2018-06-15T05:34:35.917Z,97797.15
2018-06-15T05:35:07.542Z,97798.00
2018-06-15T05:35:39.145Z,97798.48
2018-06-15T05:36:10.740Z,97797.59
2018-06-15T05:36:42.331Z,97802.70
2018-06-15T05:37:13.942Z,97802.33
2018-06-15T05:37:45.525Z,97803.17
2018-06-15T05:38:17.129Z,97802.70
2018-06-15T05:38:48.707Z,97800.16
2018-06-15T05:39:20.299Z,97803.59
2018-06-15T05:39:51.893Z,97809.09
2018-06-15T05:40:23.530Z,97799.36
2018-06-15T05:40:55.104Z,97804.45
2018-06-15T05:41:26.676Z,97803.12
2018-06-15T05:41:58.275Z,97800.57
2018-06-15T05:42:29.879Z,97808.71
2018-06-15T05:43:01.486Z,97808.72
2018-06-15T05:43:33.138Z,97803.61
2018-06-15T05:44:04.735Z,97793.62
2018-06-15T05:44:36.349Z,97808.30
2018-06-15T05:45:08.002Z,97810.44
2018-06-15T05:45:39.586Z,97807.89
2018-06-15T05:46:11.190Z,97809.17
2018-06-15T05:46:42.805Z,97809.59
2018-06-15T05:47:14.393Z,97810.91
2018-06-15T05:47:46.001Z,97812.19
2018-06-15T05:48:17.590Z,97810.50
2018-06-15T05:48:49.221Z,97812.22
2018-06-15T05:49:20.827Z,97808.80
2018-06-15T05:49:52.444Z,97810.49
2018-06-15T05:50:24.048Z,97804.11
2018-06-15T05:50:55.629Z,97810.08
2018-06-15T05:51:27.249Z,97807.95
2018-06-15T05:51:58.828Z,97805.88
2018-06-15T05:52:30.406Z,97814.34
2018-06-15T05:53:02.005Z,97809.65
2018-06-15T05:53:33.580Z,97813.05
2018-06-15T05:54:05.272Z,97807.94
2018-06-15T05:54:36.881Z,97809.65
2018-06-15T05:55:08.497Z,97813.08
2018-06-15T05:55:40.123Z,97809.67
2018-06-15T05:56:11.717Z,97811.80
2018-06-15T05:56:43.293Z,97810.95
2018-06-15T05:57:14.883Z,97812.70
2018-06-15T05:57:46.490Z,97811.42
2018-06-15T05:58:18.067Z,97816.88
2018-06-15T05:58:49.718Z,97809.09
2018-06-15T05:59:21.348Z,97815.03
2018-06-15T05:59:52.943Z,97809.06
2018-06-15T06:00:24.525Z,97813.32
2018-06-15T06:00:56.119Z,97813.75
2018-06-15T06:01:27.766Z,97816.27
2018-06-15T06:01:59.360Z,97818.39
2018-06-15T06:02:30.955Z,97815.41
2018-06-15T06:03:02.543Z,97816.69
2018-06-15T06:03:34.149Z,97817.59
2018-06-15T06:04:05.824Z,97816.33
2018-06-15T06:04:37.338Z,97818.88
2018-06-15T06:05:08.933Z,97815.47
2018-06-15T06:05:40.512Z,97820.58
2018-06-15T06:06:12.190Z,97817.18
2018-06-15T06:06:43.845Z,97820.59
2018-06-15T06:07:15.461Z,97819.38
2018-06-15T06:07:47.065Z,97820.59
2018-06-15T06:08:18.664Z,97820.22
2018-06-15T06:08:50.274Z,97821.92
2018-06-15T06:09:21.868Z,97823.22
2018-06-15T06:09:53.454Z,97827.04
2018-06-15T06:10:25.029Z,97823.20
2018-06-15T06:10:56.633Z,97823.22